Time;durP1;ratioP1;P1;durP2;ratioP2;P2;SDS_P1;SDS_P2;PMS_P1;PMS_P2;Temp;Humidity;BMP_temperature;BMP_pressure;BME280_temperature;BME280_humidity;BME280_pressure;Samples;Min_cycle;Max_cycle;Signal;HPM_P1;HPM_P2
2021/07/28 00:00:02;;;;;;;7.53;4.45;;;17.60;99.90;;;;;;4990139;28;20216;-73
2021/07/28 00:02:29;;;;;;;8.73;4.55;;;17.60;99.90;;;;;;4987894;28;20264;-73
2021/07/28 00:04:56;;;;;;;7.95;4.28;;;17.60;99.90;;;;;;4988199;28;20547;-73
2021/07/28 00:07:23;;;;;;;8.35;4.53;;;17.60;99.90;;;;;;4991570;28;20201;-73
2021/07/28 00:09:50;;;;;;;8.68;5.10;;;17.60;99.90;;;;;;4991094;28;20547;-73
2021/07/28 00:12:18;;;;;;;5.75;4.07;;;17.50;99.90;;;;;;4991712;28;20630;-73
2021/07/28 00:14:45;;;;;;;7.70;4.68;;;17.50;99.90;;;;;;5024949;23;20236;-75
2021/07/28 00:17:13;;;;;;;7.60;4.05;;;17.50;99.90;;;;;;5017179;28;20200;-74
2021/07/28 00:19:52;;;;;;;7.65;3.60;;;17.40;99.90;;;;;;5022213;28;20220;-74
2021/07/28 00:25:04;;;;;;;7.30;4.28;;;17.50;99.90;;;;;;4994943;28;20364;-75
2021/07/28 00:27:35;;;;;;;6.72;4.20;;;17.50;99.90;;;;;;4995567;28;20209;-74
2021/07/28 00:30:02;;;;;;;7.13;4.30;;;17.40;99.90;;;;;;5005440;28;20211;-74
2021/07/28 00:32:28;;;;;;;5.63;3.83;;;17.50;99.90;;;;;;5005630;28;20209;-74
2021/07/28 00:34:55;;;;;;;7.03;4.65;;;17.50;99.90;;;;;;5005153;28;20208;-74
2021/07/28 00:37:22;;;;;;;6.28;3.90;;;17.50;99.90;;;;;;4993216;28;20662;-74
2021/07/28 00:39:49;;;;;;;7.03;4.07;;;17.40;99.90;;;;;;4995622;28;20650;-74
2021/07/28 00:42:16;;;;;;;9.88;4.43;;;17.50;99.90;;;;;;5013411;28;20210;-74
2021/07/28 00:44:44;;;;;;;8.02;4.32;;;17.40;99.90;;;;;;5005955;28;20196;-75
2021/07/28 00:47:11;;;;;;;8.27;4.95;;;17.40;99.90;;;;;;4992404;28;20259;-74
2021/07/28 00:49:38;;;;;;;10.35;4.30;;;17.40;99.90;;;;;;5015703;28;20219;-74
2021/07/28 00:52:07;;;;;;;8.00;4.45;;;17.30;99.90;;;;;;5019681;28;20204;-74
2021/07/28 00:54:34;;;;;;;10.82;4.60;;;17.30;99.90;;;;;;4998160;28;20563;-75
2021/07/28 00:57:01;;;;;;;9.27;4.50;;;17.40;99.90;;;;;;5011494;28;20200;-74
2021/07/28 00:59:28;;;;;;;8.68;4.25;;;17.30;99.90;;;;;;4998464;28;20200;-74
2021/07/28 01:01:57;;;;;;;6.68;4.55;;;17.30;99.90;;;;;;4994924;28;20575;-74
2021/07/28 01:04:25;;;;;;;6.35;3.95;;;17.30;99.90;;;;;;5003673;28;20211;-74
2021/07/28 01:06:52;;;;;;;8.25;4.45;;;17.40;99.90;;;;;;5001798;28;20677;-74
2021/07/28 01:09:19;;;;;;;9.23;4.55;;;17.40;99.90;;;;;;5001917;28;20226;-74
2021/07/28 01:11:46;;;;;;;9.02;4.68;;;17.50;99.90;;;;;;5009375;28;20200;-75
2021/07/28 01:14:15;;;;;;;6.63;4.25;;;17.60;99.90;;;;;;5008029;28;20342;-74
2021/07/28 01:16:43;;;;;;;7.28;4.40;;;17.60;99.90;;;;;;5012349;28;20667;-74
2021/07/28 01:19:13;;;;;;;7.78;4.03;;;17.60;99.90;;;;;;4996918;28;20196;-74
2021/07/28 01:21:43;;;;;;;7.25;3.95;;;17.50;99.90;;;;;;4991658;28;20200;-74
2021/07/28 01:24:13;;;;;;;5.50;3.50;;;17.50;99.90;;;;;;5009328;28;20204;-74
2021/07/28 01:26:40;;;;;;;9.07;4.70;;;17.50;99.90;;;;;;5011627;28;20666;-74
2021/07/28 01:29:07;;;;;;;9.15;4.13;;;17.50;99.90;;;;;;4999120;28;20220;-74
2021/07/28 01:31:40;;;;;;;8.27;3.92;;;17.30;99.90;;;;;;5004120;28;20566;-74
2021/07/28 01:34:08;;;;;;;4.97;3.83;;;17.40;99.90;;;;;;5003176;28;20200;-74
2021/07/28 01:36:35;;;;;;;6.53;4.05;;;17.30;99.90;;;;;;5006582;28;20200;-74
2021/07/28 01:39:04;;;;;;;7.57;4.53;;;17.10;99.90;;;;;;4993318;28;20209;-75
2021/07/28 01:41:33;;;;;;;7.13;4.00;;;17.10;99.90;;;;;;4997116;28;20213;-75
2021/07/28 01:44:00;;;;;;;8.63;4.20;;;17.00;99.90;;;;;;5003835;28;20205;-75
2021/07/28 01:46:26;;;;;;;8.35;4.07;;;16.90;99.90;;;;;;5006964;28;20659;-75
2021/07/28 01:48:53;;;;;;;5.93;3.88;;;16.80;99.90;;;;;;4999441;28;20225;-75
2021/07/28 01:51:20;;;;;;;5.50;3.55;;;16.80;99.90;;;;;;4998319;28;20677;-75
2021/07/28 01:53:47;;;;;;;7.90;4.07;;;16.80;99.90;;;;;;4998761;28;20201;-75
2021/07/28 01:56:15;;;;;;;8.80;4.10;;;16.80;99.90;;;;;;4991508;28;20201;-75
2021/07/28 01:58:52;;;;;;;8.85;4.00;;;16.90;99.90;;;;;;5002957;28;20209;-75
2021/07/28 02:01:20;;;;;;;5.50;4.43;;;16.80;99.90;;;;;;5000875;28;20204;-75
2021/07/28 02:03:47;;;;;;;6.72;4.30;;;16.70;99.90;;;;;;4993353;28;20667;-75
2021/07/28 02:06:13;;;;;;;7.05;3.90;;;16.70;99.90;;;;;;5002652;28;20307;-75
2021/07/28 02:08:40;;;;;;;7.75;4.20;;;16.50;99.90;;;;;;5000042;28;20224;-75
2021/07/28 02:11:07;;;;;;;7.90;4.53;;;16.40;99.90;;;;;;5000922;28;20725;-75
2021/07/28 02:13:35;;;;;;;8.05;4.43;;;16.40;99.90;;;;;;5007891;28;20208;-75
2021/07/28 02:16:03;;;;;;;6.72;3.88;;;16.30;99.90;;;;;;4999952;28;20577;-75
2021/07/28 02:18:30;;;;;;;11.10;4.25;;;16.30;99.90;;;;;;5004866;28;20197;-75
2021/07/28 02:20:58;;;;;;;7.88;4.30;;;16.40;99.90;;;;;;5000182;28;20209;-75
2021/07/28 02:23:25;;;;;;;7.18;4.18;;;16.30;99.90;;;;;;5008219;28;20721;-75
2021/07/28 02:25:52;;;;;;;7.90;4.75;;;16.20;99.90;;;;;;5014337;28;20211;-75
2021/07/28 02:28:19;;;;;;;9.32;4.22;;;16.20;99.90;;;;;;5014442;28;20327;-72
2021/07/28 02:30:46;;;;;;;10.38;4.80;;;16.30;99.90;;;;;;5012600;28;20203;-72
2021/07/28 02:33:14;;;;;;;5.75;4.00;;;16.30;99.90;;;;;;5004648;28;20713;-72
2021/07/28 02:35:41;;;;;;;5.68;4.18;;;16.20;99.90;;;;;;5013380;28;20207;-73
2021/07/28 02:38:08;;;;;;;4.40;3.70;;;16.10;99.90;;;;;;5006865;28;20662;-72
2021/07/28 02:40:35;;;;;;;8.13;4.15;;;16.10;99.90;;;;;;5012419;28;20204;-73
2021/07/28 02:43:01;;;;;;;9.00;4.00;;;16.00;99.90;;;;;;5003045;28;20665;-72
2021/07/28 02:45:28;;;;;;;4.93;4.03;;;15.90;99.90;;;;;;5006553;28;20205;-73
2021/07/28 02:47:55;;;;;;;7.32;3.97;;;15.90;99.90;;;;;;4997129;28;20201;-73
2021/07/28 02:50:24;;;;;;;6.30;3.80;;;15.90;99.90;;;;;;5013186;28;20579;-73
2021/07/28 02:52:51;;;;;;;6.90;4.20;;;15.90;99.90;;;;;;4995704;28;20205;-73
2021/07/28 02:55:18;;;;;;;6.90;4.32;;;15.90;99.90;;;;;;5008679;28;20216;-72
2021/07/28 02:57:45;;;;;;;6.13;3.85;;;16.00;99.90;;;;;;4995465;28;20209;-73
2021/07/28 03:00:12;;;;;;;7.63;4.53;;;16.00;99.90;;;;;;4997823;28;20204;-73
2021/07/28 03:02:39;;;;;;;7.78;3.67;;;16.00;99.90;;;;;;5014664;28;20193;-72
2021/07/28 03:05:07;;;;;;;5.55;3.97;;;16.00;99.90;;;;;;4996019;28;20654;-73
2021/07/28 03:07:35;;;;;;;7.40;3.72;;;16.00;99.90;;;;;;5011496;28;20208;-73
2021/07/28 03:10:02;;;;;;;5.70;3.97;;;16.10;99.90;;;;;;4997520;28;20220;-72
2021/07/28 03:12:29;;;;;;;7.50;4.38;;;15.90;99.90;;;;;;5013258;28;20588;-73
2021/07/28 03:14:56;;;;;;;7.85;4.20;;;15.90;99.90;;;;;;5009100;28;20219;-73
2021/07/28 03:17:23;;;;;;;5.97;4.22;;;16.00;99.90;;;;;;5002631;28;20200;-73
2021/07/28 03:19:50;;;;;;;7.18;3.75;;;16.00;99.90;;;;;;5010382;28;20579;-72
2021/07/28 03:22:16;;;;;;;6.88;4.60;;;15.90;99.90;;;;;;5000047;28;20193;-73
2021/07/28 03:24:45;;;;;;;6.05;4.13;;;15.90;99.90;;;;;;5009828;28;20677;-73
2021/07/28 03:27:11;;;;;;;8.57;4.32;;;15.90;99.90;;;;;;5006658;28;20208;-73
2021/07/28 03:29:38;;;;;;;6.40;4.07;;;16.00;99.90;;;;;;5013182;28;20230;-73
2021/07/28 03:32:06;;;;;;;7.13;4.22;;;15.90;99.90;;;;;;5011320;28;20204;-73
2021/07/28 03:34:33;;;;;;;6.35;4.30;;;15.90;99.90;;;;;;5011187;28;20573;-72
2021/07/28 03:36:59;;;;;;;8.73;4.30;;;15.80;99.90;;;;;;5001165;28;20197;-73
2021/07/28 03:39:26;;;;;;;6.55;4.75;;;15.80;99.90;;;;;;4993943;28;20193;-73
2021/07/28 03:41:54;;;;;;;7.30;4.50;;;15.70;99.90;;;;;;4996566;28;20208;-72
2021/07/28 03:44:21;;;;;;;11.98;5.10;;;15.70;99.90;;;;;;5012416;28;20226;-73
2021/07/28 03:46:48;;;;;;;9.32;6.07;;;15.60;99.90;;;;;;5008735;28;20201;-73
2021/07/28 03:49:15;;;;;;;11.65;6.70;;;15.70;99.90;;;;;;5006063;28;20224;-73
2021/07/28 03:51:41;;;;;;;14.50;6.50;;;15.70;99.90;;;;;;4995388;28;20219;-73
2021/07/28 03:54:08;;;;;;;9.88;5.90;;;15.70;99.90;;;;;;4994836;28;20544;-73
2021/07/28 03:56:35;;;;;;;10.95;6.13;;;15.70;99.90;;;;;;4993875;28;20207;-72
2021/07/28 03:59:03;;;;;;;13.75;5.90;;;15.90;99.90;;;;;;5010031;28;20653;-73
2021/07/28 04:01:30;;;;;;;11.80;6.20;;;15.70;99.90;;;;;;4999311;28;20205;-73
2021/07/28 04:03:57;;;;;;;11.57;6.63;;;15.80;99.90;;;;;;4999296;28;20217;-73
2021/07/28 04:06:24;;;;;;;14.57;6.93;;;16.00;99.90;;;;;;5006387;28;20674;-73
2021/07/28 04:08:51;;;;;;;11.32;6.03;;;16.70;99.90;;;;;;4995318;28;20201;-73
2021/07/28 04:11:17;;;;;;;11.27;6.45;;;16.60;99.90;;;;;;5005211;28;20200;-73
2021/07/28 04:13:44;;;;;;;10.90;6.40;;;16.50;99.90;;;;;;5001540;28;20216;-73
2021/07/28 04:16:12;;;;;;;12.20;6.75;;;16.30;99.90;;;;;;4992618;28;20201;-73
2021/07/28 04:18:39;;;;;;;10.52;5.28;;;16.30;99.90;;;;;;5008733;28;20226;-72
2021/07/28 04:21:06;;;;;;;12.48;7.22;;;16.30;99.90;;;;;;5004838;28;20206;-72
2021/07/28 04:23:33;;;;;;;8.82;6.15;;;16.30;99.90;;;;;;5005369;28;20209;-73
2021/07/28 04:26:00;;;;;;;15.07;9.48;;;16.30;99.90;;;;;;5000291;28;20256;-73
2021/07/28 04:28:27;;;;;;;11.38;7.13;;;16.50;99.90;;;;;;4997396;28;20211;-72
2021/07/28 04:30:53;;;;;;;7.95;5.00;;;16.40;99.90;;;;;;4994459;28;20221;-73
2021/07/28 04:33:22;;;;;;;10.65;5.20;;;16.50;99.90;;;;;;4993091;28;20207;-72
2021/07/28 04:35:49;;;;;;;7.82;4.78;;;16.70;99.90;;;;;;4994872;28;20572;-72
2021/07/28 04:38:16;;;;;;;7.55;5.10;;;16.80;99.90;;;;;;5002150;28;20219;-73
2021/07/28 04:40:43;;;;;;;6.13;4.80;;;16.80;99.90;;;;;;4992731;28;20197;-73
2021/07/28 04:43:10;;;;;;;6.53;5.07;;;16.60;99.90;;;;;;5006671;28;20571;-72
2021/07/28 04:45:36;;;;;;;7.97;5.40;;;16.70;99.90;;;;;;5012032;28;20200;-73
2021/07/28 04:48:05;;;;;;;9.40;5.07;;;16.90;99.90;;;;;;5009862;28;20211;-73
2021/07/28 04:50:33;;;;;;;8.35;4.63;;;16.80;99.90;;;;;;5031912;28;20587;-72
2021/07/28 04:53:00;;;;;;;7.97;5.20;;;16.70;99.90;;;;;;5013298;28;20205;-73
2021/07/28 04:55:27;;;;;;;7.75;5.13;;;17.00;99.90;;;;;;4992858;28;20203;-73
2021/07/28 04:57:53;;;;;;;9.20;5.65;;;17.10;99.90;;;;;;5010197;28;20204;-73
2021/07/28 05:00:21;;;;;;;8.15;5.90;;;17.10;99.90;;;;;;4993644;28;20636;-72
2021/07/28 05:02:48;;;;;;;7.95;5.65;;;17.40;99.90;;;;;;4992021;28;20223;-73
2021/07/28 05:05:15;;;;;;;10.75;5.28;;;17.40;99.90;;;;;;4991426;28;20219;-73
2021/07/28 05:07:43;;;;;;;10.30;6.10;;;17.40;99.90;;;;;;4992607;28;20584;-73
2021/07/28 05:10:10;;;;;;;9.93;6.93;;;17.40;99.90;;;;;;5010192;28;20686;-73
2021/07/28 05:12:37;;;;;;;6.60;5.03;;;17.20;99.90;;;;;;5011475;28;20206;-73
2021/07/28 05:15:05;;;;;;;6.38;4.93;;;17.20;99.90;;;;;;4996812;28;20704;-73
2021/07/28 05:17:31;;;;;;;7.72;4.75;;;17.40;99.90;;;;;;4996052;28;20564;-73
2021/07/28 05:19:58;;;;;;;10.50;5.00;;;17.50;99.90;;;;;;4991320;28;20203;-73
2021/07/28 05:22:25;;;;;;;8.45;5.60;;;17.50;99.90;;;;;;4997466;28;20205;-73
2021/07/28 05:24:55;;;;;;;9.88;5.85;;;17.50;99.90;;;;;;4998869;28;20660;-73
2021/07/28 05:27:21;;;;;;;10.13;5.30;;;17.60;99.90;;;;;;5008108;28;20208;-73
2021/07/28 05:29:48;;;;;;;9.35;5.05;;;17.60;99.90;;;;;;5002510;28;20228;-73
2021/07/28 05:32:16;;;;;;;7.45;4.85;;;17.60;99.90;;;;;;4997994;28;20223;-73
2021/07/28 05:34:42;;;;;;;9.98;4.72;;;17.70;99.90;;;;;;5002009;28;20204;-73
2021/07/28 05:37:09;;;;;;;6.47;4.60;;;17.80;99.90;;;;;;5009573;28;20729;-73
2021/07/28 05:39:36;;;;;;;12.32;4.95;;;18.10;99.90;;;;;;5008450;28;20193;-73
2021/07/28 05:42:05;;;;;;;8.52;5.20;;;18.10;99.90;;;;;;5014980;28;20540;-73
2021/07/28 05:44:32;;;;;;;8.00;4.75;;;18.10;99.90;;;;;;5009686;28;20201;-73
2021/07/28 05:46:59;;;;;;;9.30;4.53;;;18.40;99.90;;;;;;5012011;28;20659;-72
2021/07/28 05:49:26;;;;;;;8.20;4.78;;;18.40;99.90;;;;;;5022508;28;20224;-73
2021/07/28 05:51:53;;;;;;;6.57;4.50;;;18.30;99.90;;;;;;4996778;28;20215;-73
2021/07/28 05:54:19;;;;;;;6.88;4.55;;;18.40;99.90;;;;;;4996306;28;20201;-73
2021/07/28 05:56:46;;;;;;;6.53;4.28;;;18.40;99.90;;;;;;4996935;28;20193;-73
2021/07/28 05:59:14;;;;;;;4.93;4.38;;;18.30;99.90;;;;;;4995938;28;20291;-73
2021/07/28 06:01:41;;;;;;;5.57;4.57;;;18.20;99.90;;;;;;4996318;28;20662;-73
2021/07/28 06:04:08;;;;;;;7.03;4.80;;;18.30;99.90;;;;;;4999519;28;20568;-73
2021/07/28 06:06:35;;;;;;;5.05;4.30;;;18.30;99.90;;;;;;5002776;28;20215;-73
2021/07/28 06:09:02;;;;;;;5.18;4.47;;;18.30;99.90;;;;;;4997127;28;20203;-73
2021/07/28 06:11:29;;;;;;;7.60;4.60;;;18.50;99.90;;;;;;4996506;28;20216;-73
2021/07/28 06:13:56;;;;;;;8.02;4.30;;;18.60;99.90;;;;;;5001325;28;20216;-69
2021/07/28 06:16:24;;;;;;;6.90;4.65;;;18.70;99.90;;;;;;4998445;28;20201;-70
2021/07/28 06:18:51;;;;;;;6.32;4.60;;;18.90;99.90;;;;;;4998830;28;20212;-71
2021/07/28 06:21:18;;;;;;;8.50;4.97;;;18.90;99.90;;;;;;4997498;28;20211;-72
2021/07/28 06:23:44;;;;;;;4.97;4.00;;;18.50;99.90;;;;;;5006071;28;20208;-71
2021/07/28 06:26:11;;;;;;;6.85;4.13;;;18.70;99.90;;;;;;5001319;28;20204;-70
2021/07/28 06:28:38;;;;;;;5.38;4.20;;;18.60;99.90;;;;;;4993084;28;20401;-70
2021/07/28 06:31:05;;;;;;;5.85;4.70;;;18.70;99.90;;;;;;4999798;28;20562;-70
2021/07/28 06:33:33;;;;;;;4.88;4.35;;;18.60;99.90;;;;;;5000106;28;20204;-76
2021/07/28 06:36:00;;;;;;;6.28;4.40;;;18.60;99.90;;;;;;4997576;28;20216;-75
2021/07/28 06:38:26;;;;;;;7.47;4.45;;;18.80;99.90;;;;;;4996800;28;20209;-75
2021/07/28 06:40:53;;;;;;;7.78;4.75;;;18.90;99.90;;;;;;5001374;28;20207;-76
2021/07/28 06:43:20;;;;;;;6.72;4.60;;;18.90;99.90;;;;;;5000687;28;20212;-71
2021/07/28 06:45:47;;;;;;;6.85;4.78;;;18.90;99.90;;;;;;4999183;28;20210;-71
2021/07/28 06:48:14;;;;;;;8.52;4.88;;;19.10;99.90;;;;;;5002590;28;20215;-73
2021/07/28 06:50:42;;;;;;;5.28;4.20;;;19.20;99.90;;;;;;5002627;28;20233;-73
2021/07/28 06:53:09;;;;;;;5.88;4.40;;;19.20;99.90;;;;;;4997022;28;20214;-72
2021/07/28 06:55:36;;;;;;;6.68;4.70;;;19.30;99.90;;;;;;4998558;28;20209;-73
2021/07/28 06:58:03;;;;;;;7.43;4.90;;;19.50;99.90;;;;;;5002041;28;20201;-72
2021/07/28 07:00:29;;;;;;;5.97;4.80;;;19.50;99.90;;;;;;5003937;28;20675;-72
2021/07/28 07:02:59;;;;;;;5.20;4.43;;;19.40;99.90;;;;;;4998076;28;20212;-72
2021/07/28 07:05:26;;;;;;;6.63;4.45;;;19.30;99.90;;;;;;4998089;28;20207;-73
2021/07/28 07:07:55;;;;;;;7.13;5.10;;;19.50;99.90;;;;;;4995914;28;20211;-72
2021/07/28 07:10:22;;;;;;;4.80;4.10;;;19.60;99.90;;;;;;4994442;28;20228;-77
2021/07/28 07:12:49;;;;;;;6.30;4.75;;;19.60;99.90;;;;;;4998773;28;20205;-73
2021/07/28 07:15:16;;;;;;;8.18;4.95;;;19.60;99.90;;;;;;4998221;28;20227;-73
2021/07/28 07:17:43;;;;;;;6.38;4.97;;;19.50;99.90;;;;;;5002247;28;20201;-74
2021/07/28 07:20:11;;;;;;;6.57;4.57;;;19.60;99.90;;;;;;5003290;28;20721;-73
2021/07/28 07:22:38;;;;;;;8.70;5.00;;;19.50;99.90;;;;;;4995129;28;20215;-72
2021/07/28 07:25:07;;;;;;;6.95;5.05;;;19.50;99.90;;;;;;5001087;28;20201;-72
2021/07/28 07:27:34;;;;;;;7.72;4.82;;;19.50;99.90;;;;;;5000853;28;20559;-73
2021/07/28 07:30:01;;;;;;;7.03;4.85;;;19.60;99.90;;;;;;4995158;28;20220;-73
2021/07/28 07:32:29;;;;;;;8.68;4.95;;;19.60;99.90;;;;;;5000194;28;20287;-73
2021/07/28 07:34:57;;;;;;;6.60;5.10;;;19.70;99.90;;;;;;4996503;28;20671;-73
2021/07/28 07:37:24;;;;;;;8.57;4.93;;;19.90;99.90;;;;;;5002178;28;20200;-73
2021/07/28 07:39:50;;;;;;;9.02;4.68;;;19.90;99.90;;;;;;5002893;28;20634;-73
2021/07/28 07:42:19;;;;;;;5.25;4.45;;;19.90;99.90;;;;;;4998689;28;20197;-73
2021/07/28 07:44:48;;;;;;;5.30;4.47;;;19.80;99.90;;;;;;4995648;28;20291;-73
2021/07/28 07:47:14;;;;;;;6.80;4.50;;;19.70;99.90;;;;;;4997753;28;20213;-73
2021/07/28 07:49:41;;;;;;;7.78;4.95;;;19.70;99.90;;;;;;5007529;28;20701;-73
2021/07/28 07:52:08;;;;;;;6.75;4.82;;;19.50;99.90;;;;;;4995372;28;20702;-73
2021/07/28 07:54:35;;;;;;;7.47;5.00;;;19.60;99.90;;;;;;5000655;28;20200;-73
2021/07/28 07:57:02;;;;;;;8.82;5.13;;;19.60;99.90;;;;;;5001947;28;20209;-72
2021/07/28 07:59:30;;;;;;;9.02;4.60;;;19.70;99.90;;;;;;4995388;28;20211;-73
2021/07/28 08:01:57;;;;;;;6.20;4.50;;;19.80;99.90;;;;;;4996477;28;20209;-73
2021/07/28 08:04:24;;;;;;;6.82;4.85;;;20.00;99.90;;;;;;5003940;28;20211;-73
2021/07/28 08:06:51;;;;;;;5.82;4.57;;;20.40;99.90;;;;;;5000984;28;20205;-73
2021/07/28 08:09:18;;;;;;;6.72;4.85;;;20.30;99.90;;;;;;5012124;28;20204;-72
2021/07/28 08:11:45;;;;;;;6.72;4.43;;;20.30;99.90;;;;;;5010840;28;20235;-73
2021/07/28 08:14:12;;;;;;;6.68;4.90;;;20.50;99.90;;;;;;5011788;28;20666;-73
2021/07/28 08:16:40;;;;;;;5.97;4.80;;;20.70;99.90;;;;;;5011445;28;20204;-73
2021/07/28 08:19:07;;;;;;;6.70;4.47;;;20.70;99.90;;;;;;4996193;28;20219;-73
2021/07/28 08:21:34;;;;;;;6.45;4.40;;;20.70;99.90;;;;;;4997625;28;20663;-73
2021/07/28 08:24:01;;;;;;;6.55;4.82;;;20.70;99.90;;;;;;4994486;28;20205;-73
2021/07/28 08:26:28;;;;;;;7.97;4.72;;;20.80;99.90;;;;;;5012094;28;20569;-73
2021/07/28 08:28:54;;;;;;;8.18;5.28;;;21.00;99.90;;;;;;4993404;28;20201;-72
2021/07/28 08:31:21;;;;;;;7.88;5.25;;;21.00;99.90;;;;;;4992628;28;20247;-73
2021/07/28 08:33:50;;;;;;;6.78;5.10;;;21.00;99.90;;;;;;4994138;28;20216;-73
2021/07/28 08:36:16;;;;;;;8.52;5.90;;;21.00;99.90;;;;;;4993493;28;20209;-73
2021/07/28 08:38:43;;;;;;;9.45;5.47;;;20.80;99.90;;;;;;4993169;28;20209;-73
2021/07/28 08:41:11;;;;;;;9.02;5.65;;;20.90;99.90;;;;;;4990826;28;20203;-73
2021/07/28 08:43:39;;;;;;;8.85;5.63;;;20.70;99.90;;;;;;5007637;28;20268;-73
2021/07/28 08:46:08;;;;;;;6.72;4.82;;;20.80;99.90;;;;;;4996374;28;20207;-74
2021/07/28 08:48:35;;;;;;;8.23;5.00;;;20.80;99.90;;;;;;5007644;28;20221;-73
2021/07/28 08:51:05;;;;;;;5.40;4.80;;;20.90;99.90;;;;;;5000228;28;20210;-73
2021/07/28 08:53:32;;;;;;;10.15;5.25;;;20.70;99.90;;;;;;4999773;28;20678;-73
2021/07/28 08:56:02;;;;;;;6.25;4.63;;;21.00;99.90;;;;;;4996786;28;20209;-73
2021/07/28 08:58:29;;;;;;;5.57;4.65;;;21.20;99.90;;;;;;4994283;28;20197;-73
2021/07/28 09:00:57;;;;;;;6.13;4.80;;;21.10;99.90;;;;;;4992842;28;20201;-74
2021/07/28 09:03:24;;;;;;;10.02;5.85;;;21.00;99.90;;;;;;5008230;28;20639;-73
2021/07/28 09:05:52;;;;;;;6.22;4.78;;;21.50;99.90;;;;;;5002950;28;20197;-73
2021/07/28 09:08:27;;;;;;;5.72;4.80;;;22.00;99.90;;;;;;5004906;28;20208;-73
2021/07/28 09:10:57;;;;;;;6.43;4.40;;;22.30;99.90;;;;;;4998213;28;20224;-72
2021/07/28 09:13:32;;;;;;;6.07;4.50;;;22.00;99.90;;;;;;5002378;28;20212;-73
2021/07/28 09:16:01;;;;;;;5.75;4.55;;;22.10;99.90;;;;;;4996356;28;20238;-73
2021/07/28 09:18:33;;;;;;;7.45;4.32;;;22.90;99.90;;;;;;4997371;28;20234;-73
2021/07/28 09:21:01;;;;;;;5.32;4.30;;;23.20;99.90;;;;;;4990884;28;20196;-73
2021/07/28 09:23:37;;;;;;;5.50;4.00;;;23.70;99.90;;;;;;4995245;28;20796;-73
2021/07/28 09:26:06;;;;;;;8.20;4.43;;;23.70;99.90;;;;;;4992253;28;20207;-74
2021/07/28 09:28:33;;;;;;;7.28;4.45;;;23.70;99.90;;;;;;4991651;28;20208;-74
2021/07/28 09:31:00;;;;;;;5.50;3.67;;;23.60;99.90;;;;;;4995382;28;20821;-74
2021/07/28 09:33:27;;;;;;;8.18;4.35;;;23.90;99.90;;;;;;4999221;28;20271;-74
2021/07/28 09:36:15;;;;;;;8.32;4.30;;;24.40;99.90;;;;;;4996920;28;20213;-74
2021/07/28 09:38:45;;;;;;;5.43;4.15;;;24.40;99.90;;;;;;4988711;28;20304;-74
2021/07/28 09:41:23;;;;;;;4.00;3.70;;;24.40;99.90;;;;;;5001599;28;20291;-74
2021/07/28 09:43:56;;;;;;;4.88;4.10;;;23.60;99.90;;;;;;4996212;28;20212;-73
2021/07/28 09:46:34;;;;;;;6.63;4.05;;;23.90;99.90;;;;;;4994836;28;20208;-74
2021/07/28 09:49:03;;;;;;;5.25;4.57;;;24.60;99.90;;;;;;4993112;28;20203;-74
2021/07/28 09:51:34;;;;;;;5.82;4.18;;;25.20;99.90;;;;;;4995188;28;20240;-74
2021/07/28 09:54:05;;;;;;;5.05;4.15;;;24.70;99.90;;;;;;4998424;28;20248;-74
2021/07/28 09:56:39;;;;;;;5.57;4.00;;;23.90;99.90;;;;;;4992812;28;20217;-73
2021/07/28 09:59:07;;;;;;;6.45;4.30;;;23.70;99.90;;;;;;4989710;28;20487;-74
2021/07/28 10:01:36;;;;;;;4.95;4.25;;;23.90;99.90;;;;;;4994043;28;20220;-74
2021/07/28 10:04:05;;;;;;;7.35;4.13;;;24.30;99.90;;;;;;4995540;28;20209;-73
2021/07/28 10:06:39;;;;;;;5.80;4.10;;;24.00;99.90;;;;;;4995696;28;20637;-73
2021/07/28 10:09:09;;;;;;;5.47;4.00;;;23.50;99.90;;;;;;4989707;28;20205;-74
2021/07/28 10:11:38;;;;;;;4.43;4.00;;;23.40;99.90;;;;;;4990129;28;20251;-74
2021/07/28 10:14:06;;;;;;;5.68;4.22;;;24.30;99.90;;;;;;4994636;28;20236;-74
2021/07/28 10:16:33;;;;;;;4.15;3.75;;;24.70;99.90;;;;;;4992832;28;20339;-73
2021/07/28 10:19:02;;;;;;;5.20;4.28;;;25.20;99.90;;;;;;4995745;28;20205;-74
2021/07/28 10:21:31;;;;;;;5.82;3.78;;;25.10;99.90;;;;;;4990316;28;20614;-74
2021/07/28 10:23:59;;;;;;;4.32;3.80;;;25.00;99.90;;;;;;4996683;28;20335;-74
2021/07/28 10:26:27;;;;;;;6.65;3.95;;;24.70;99.90;;;;;;5001322;28;20207;-74
2021/07/28 10:28:55;;;;;;;5.63;3.83;;;25.00;99.90;;;;;;4996937;28;20209;-74
2021/07/28 10:31:24;;;;;;;4.90;3.95;;;25.30;99.90;;;;;;5000285;28;20233;-74
2021/07/28 10:33:53;;;;;;;6.75;3.97;;;25.20;99.90;;;;;;5001743;28;20212;-74
2021/07/28 10:36:23;;;;;;;4.40;3.70;;;24.40;99.90;;;;;;4999090;28;20571;-74
2021/07/28 10:38:57;;;;;;;6.30;4.30;;;24.50;99.90;;;;;;4999779;28;20217;-74
2021/07/28 10:41:49;;;;;;;4.47;3.80;;;24.40;99.90;;;;;;4994028;28;20203;-73
2021/07/28 10:44:22;;;;;;;5.75;3.88;;;24.00;99.90;;;;;;4985640;28;20275;-76
2021/07/28 10:47:42;;;;;;;6.03;3.75;;;24.10;99.90;;;;;;4990829;28;20231;-76
2021/07/28 10:50:43;;;;;;;5.32;3.42;;;24.00;99.90;;;;;;4996079;28;20556;-76
2021/07/28 10:53:10;;;;;;;4.72;3.63;;;24.00;99.90;;;;;;4992858;28;20600;-76
2021/07/28 10:55:38;;;;;;;4.20;3.70;;;24.10;99.90;;;;;;4994405;28;20205;-76
2021/07/28 10:58:28;;;;;;;6.13;3.38;;;24.00;99.90;;;;;;4995865;28;20300;-76
2021/07/28 11:01:00;;;;;;;4.90;3.65;;;23.90;99.90;;;;;;4988412;28;20205;-76
2021/07/28 11:03:33;;;;;;;5.88;3.50;;;23.70;99.90;;;;;;4994238;28;20205;-76
2021/07/28 11:06:21;;;;;;;7.05;3.90;;;23.70;99.90;;;;;;4992555;28;20209;-76
2021/07/28 11:08:48;;;;;;;3.45;3.15;;;23.70;99.90;;;;;;4997603;28;20201;-76
2021/07/28 11:11:30;;;;;;;4.22;3.67;;;23.80;99.90;;;;;;4996628;28;20288;-76
2021/07/28 11:14:04;;;;;;;4.80;3.70;;;23.70;99.90;;;;;;4993286;28;20592;-75
2021/07/28 11:16:39;;;;;;;5.32;3.13;;;23.80;99.90;;;;;;4992025;28;20219;-76
2021/07/28 11:19:06;;;;;;;4.43;3.42;;;24.10;99.90;;;;;;4989311;28;20210;-76
2021/07/28 11:21:33;;;;;;;7.28;3.40;;;23.90;99.90;;;;;;4987960;28;20216;-73
2021/07/28 11:24:02;;;;;;;5.35;3.75;;;24.00;99.90;;;;;;4994498;28;20295;-73
2021/07/28 11:26:32;;;;;;;3.50;3.13;;;24.20;99.90;;;;;;4991469;28;20200;-73
2021/07/28 11:29:01;;;;;;;4.25;3.08;;;24.20;99.90;;;;;;4994223;28;20204;-73
2021/07/28 11:31:35;;;;;;;3.90;2.78;;;24.10;99.90;;;;;;4988041;28;20248;-72
2021/07/28 11:34:17;;;;;;;3.50;3.20;;;23.90;99.90;;;;;;4990656;28;20207;-72
2021/07/28 11:36:47;;;;;;;3.30;2.60;;;23.90;99.90;;;;;;4986762;28;20212;-73
2021/07/28 11:39:20;;;;;;;3.28;2.97;;;23.80;99.90;;;;;;4990762;28;20220;-73
2021/07/28 11:41:48;;;;;;;5.55;2.92;;;23.70;99.90;;;;;;4992326;28;20208;-73
2021/07/28 11:44:16;;;;;;;3.30;3.00;;;23.90;99.90;;;;;;4988851;28;20213;-72
2021/07/28 11:46:53;;;;;;;5.85;4.00;;;23.70;99.90;;;;;;4990297;28;20212;-75
2021/07/28 11:49:24;;;;;;;5.40;3.45;;;22.90;99.90;;;;;;4997547;28;20215;-75
2021/07/28 11:51:52;;;;;;;4.40;3.85;;;22.90;99.90;;;;;;4989650;28;20228;-75
2021/07/28 11:54:20;;;;;;;5.40;4.20;;;22.80;99.90;;;;;;4991581;28;20223;-74
2021/07/28 11:56:49;;;;;;;6.15;3.85;;;22.30;99.90;;;;;;4986637;28;20262;-75
2021/07/28 11:59:21;;;;;;;4.68;3.80;;;22.40;99.90;;;;;;4993684;28;20205;-75
2021/07/28 12:01:52;;;;;;;5.07;3.88;;;22.10;99.90;;;;;;4992828;28;20240;-74
2021/07/28 12:04:21;;;;;;;4.30;3.85;;;22.20;99.90;;;;;;4992635;28;20625;-74
2021/07/28 12:06:49;;;;;;;5.05;3.90;;;22.50;99.90;;;;;;4990641;28;20286;-74
2021/07/28 12:09:18;;;;;;;5.00;3.75;;;22.70;99.90;;;;;;4987341;28;20263;-75
2021/07/28 12:11:57;;;;;;;5.20;3.70;;;22.70;99.90;;;;;;4985397;28;20730;-75
2021/07/28 12:14:38;;;;;;;3.90;3.50;;;22.90;99.90;;;;;;4985593;28;20246;-74
2021/07/28 12:17:21;;;;;;;4.38;3.47;;;23.30;99.90;;;;;;4986035;28;20219;-73
2021/07/28 12:19:54;;;;;;;6.25;3.40;;;23.40;99.90;;;;;;4988606;28;20231;-74
2021/07/28 12:22:28;;;;;;;4.13;2.90;;;23.50;99.90;;;;;;4985546;28;20741;-74
2021/07/28 12:24:55;;;;;;;3.67;3.35;;;23.60;99.90;;;;;;4991728;28;20212;-74
2021/07/28 12:27:56;;;;;;;5.25;3.33;;;23.50;99.90;;;;;;4985720;28;20236;-74
2021/07/28 12:30:25;;;;;;;5.25;3.33;;;23.20;99.90;;;;;;4989920;28;20211;-75
2021/07/28 12:33:03;;;;;;;4.68;4.10;;;23.20;99.90;;;;;;4984745;28;20825;-74
2021/07/28 12:35:33;;;;;;;5.50;3.90;;;22.70;99.90;;;;;;4984211;28;20645;-73
2021/07/28 12:38:17;;;;;;;6.10;4.60;;;22.40;99.90;;;;;;4983195;28;20217;-73
2021/07/28 12:40:47;;;;;;;5.65;4.18;;;21.80;99.90;;;;;;4994622;28;20209;-73
2021/07/28 12:43:14;;;;;;;5.00;4.40;;;21.70;99.90;;;;;;4987352;28;20274;-74
2021/07/28 12:45:43;;;;;;;5.95;4.13;;;22.20;99.90;;;;;;4994970;28;20271;-74
2021/07/28 12:48:11;;;;;;;6.13;4.10;;;22.10;99.90;;;;;;4986671;28;20657;-73
2021/07/28 12:50:41;;;;;;;5.25;3.83;;;22.10;99.90;;;;;;4988980;28;20220;-74
2021/07/28 12:53:09;;;;;;;5.55;4.32;;;21.80;99.90;;;;;;4988368;28;20320;-74
2021/07/28 12:55:37;;;;;;;6.80;4.47;;;21.50;99.90;;;;;;4990285;28;20246;-73